createdAt,value
2023-05-22T00:00:09.498Z,82.60
2023-05-22T00:02:55.312Z,82.87
2023-05-22T00:05:41.293Z,82.95
2023-05-22T00:08:29.588Z,83.47
2023-05-22T00:11:15.148Z,83.27
2023-05-22T00:14:00.530Z,83.44
2023-05-22T00:16:48.526Z,83.35
2023-05-22T00:19:35.136Z,83.36
2023-05-22T00:22:21.072Z,83.17
2023-05-22T00:25:07.321Z,83.08
2023-05-22T00:27:52.524Z,83.45
2023-05-22T00:30:38.300Z,83.31
2023-05-22T00:33:23.901Z,83.22
2023-05-22T00:36:09.533Z,83.22
2023-05-22T00:38:54.769Z,83.15
2023-05-22T00:41:40.441Z,83.45
2023-05-22T00:44:25.754Z,83.75
2023-05-22T00:47:10.951Z,83.55
2023-05-22T00:49:56.344Z,83.72
2023-05-22T00:52:45.582Z,83.71
2023-05-22T00:55:30.878Z,83.62
2023-05-22T00:58:21.879Z,84.03
2023-05-22T01:01:11.440Z,83.68
2023-05-22T01:03:57.445Z,83.76
2023-05-22T01:06:43.025Z,84.43
2023-05-22T01:09:29.414Z,84.63
2023-05-22T01:12:24.121Z,84.58
2023-05-22T01:15:21.986Z,84.42
2023-05-22T01:18:19.883Z,84.83
2023-05-22T01:21:14.280Z,84.56
2023-05-22T01:24:11.685Z,85.00
2023-05-22T01:27:06.075Z,84.56
2023-05-22T01:30:04.207Z,84.28
2023-05-22T01:32:50.292Z,84.35
2023-05-22T01:35:39.720Z,84.40
2023-05-22T01:38:25.468Z,84.46
2023-05-22T01:41:11.171Z,84.24
2023-05-22T01:43:56.648Z,84.81
2023-05-22T01:46:41.942Z,84.39
2023-05-22T01:49:28.523Z,84.36
2023-05-22T01:52:22.783Z,84.67
2023-05-22T01:55:22.783Z,84.77
2023-05-22T01:58:24.708Z,85.21
2023-05-22T02:01:12.099Z,84.86
2023-05-22T02:03:58.182Z,84.66
2023-05-22T02:06:44.578Z,84.70
2023-05-22T02:09:33.556Z,84.73
2023-05-22T02:12:21.220Z,84.56
2023-05-22T02:15:08.677Z,84.63
2023-05-22T02:17:54.145Z,85.29
2023-05-22T02:20:39.648Z,84.80
2023-05-22T02:23:26.191Z,84.87
2023-05-22T02:26:11.554Z,85.02
2023-05-22T02:28:56.833Z,85.04
2023-05-22T02:31:42.265Z,85.24
2023-05-22T02:34:27.691Z,84.96
2023-05-22T02:37:15.801Z,84.98
2023-05-22T02:40:01.115Z,85.21
2023-05-22T02:42:46.260Z,85.40
2023-05-22T02:45:32.665Z,85.48
2023-05-22T02:48:18.156Z,84.90
2023-05-22T02:51:03.627Z,85.36
2023-05-22T02:53:55.660Z,85.42
2023-05-22T02:56:47.703Z,85.51
2023-05-22T02:59:33.114Z,85.58
2023-05-22T03:02:28.465Z,85.78
2023-05-22T03:05:17.656Z,85.84
2023-05-22T03:08:03.301Z,85.70
2023-05-22T03:10:48.753Z,85.70
2023-05-22T03:13:34.061Z,85.57
2023-05-22T03:16:19.880Z,85.66
2023-05-22T03:19:13.122Z,85.58
2023-05-22T03:21:58.290Z,85.92
2023-05-22T03:24:43.585Z,85.99
2023-05-22T03:27:28.783Z,86.31
2023-05-22T03:30:15.039Z,86.57
2023-05-22T03:33:00.349Z,86.62
2023-05-22T03:35:45.641Z,86.82
2023-05-22T03:38:30.833Z,87.28
2023-05-22T03:41:16.144Z,87.02
2023-05-22T03:44:03.849Z,87.37
2023-05-22T03:46:48.775Z,87.82
2023-05-22T03:49:34.034Z,87.71
2023-05-22T03:52:19.311Z,88.06
2023-05-22T03:55:05.630Z,88.12
2023-05-22T03:57:50.899Z,88.79
2023-05-22T04:00:38.424Z,88.71
2023-05-22T04:03:24.753Z,89.36
2023-05-22T04:06:10.818Z,89.21
2023-05-22T04:08:55.772Z,89.42
2023-05-22T04:11:42.305Z,89.67
2023-05-22T04:14:28.188Z,90.35
2023-05-22T04:17:13.314Z,91.04
2023-05-22T04:19:58.869Z,91.87
2023-05-22T04:22:45.917Z,92.72
2023-05-22T04:25:31.697Z,92.20
2023-05-22T04:28:22.535Z,92.53
2023-05-22T04:31:07.692Z,92.90
2023-05-22T04:33:54.632Z,92.37
2023-05-22T04:36:40.058Z,92.75
2023-05-22T04:39:26.346Z,92.92
2023-05-22T04:42:16.116Z,93.04
2023-05-22T04:45:01.519Z,93.86
2023-05-22T04:47:46.874Z,94.36
2023-05-22T04:50:32.697Z,94.59
2023-05-22T04:53:18.285Z,93.89
2023-05-22T04:56:03.618Z,94.19
2023-05-22T04:58:54.004Z,94.25
2023-05-22T05:01:39.489Z,93.89
2023-05-22T05:04:27.713Z,93.22
2023-05-22T05:07:13.554Z,93.05
2023-05-22T05:09:58.641Z,93.06
2023-05-22T05:12:43.907Z,92.27
2023-05-22T05:15:29.723Z,91.80
2023-05-22T05:18:15.166Z,91.36
2023-05-22T05:21:00.707Z,91.31
2023-05-22T05:23:46.117Z,91.37
2023-05-22T05:26:31.715Z,90.73
2023-05-22T05:29:17.107Z,90.18
2023-05-22T05:32:02.138Z,90.60
2023-05-22T05:34:47.295Z,90.32
2023-05-22T05:37:32.792Z,90.95
2023-05-22T05:40:18.061Z,90.87
2023-05-22T05:43:03.637Z,90.61
2023-05-22T05:45:48.828Z,89.77
2023-05-22T05:48:34.118Z,89.67
2023-05-22T05:51:20.937Z,89.57
2023-05-22T05:54:06.230Z,89.07
2023-05-22T05:56:51.719Z,88.46
2023-05-22T05:59:36.972Z,88.23
2023-05-22T06:02:22.321Z,88.02
2023-05-22T06:05:09.224Z,88.15
2023-05-22T06:07:54.607Z,88.02
2023-05-22T06:10:40.191Z,87.73
2023-05-22T06:13:25.622Z,87.56
2023-05-22T06:16:11.004Z,87.22
2023-05-22T06:18:58.986Z,85.70
2023-05-22T06:21:44.336Z,84.74
2023-05-22T06:24:29.683Z,84.01
2023-05-22T06:27:15.098Z,82.60
2023-05-22T06:30:03.735Z,81.63
2023-05-22T06:32:50.040Z,80.81
2023-05-22T06:35:35.160Z,80.57
2023-05-22T06:38:20.735Z,80.10
2023-05-22T06:41:06.485Z,79.53
2023-05-22T06:43:51.866Z,78.26
2023-05-22T06:46:37.178Z,76.81
2023-05-22T06:49:22.384Z,72.52
2023-05-22T06:52:07.868Z,69.14
2023-05-22T06:54:54.001Z,65.88
2023-05-22T06:57:39.723Z,62.77
2023-05-22T07:00:25.414Z,61.93
2023-05-22T07:03:11.904Z,58.68
2023-05-22T07:05:59.440Z,59.17
2023-05-22T07:08:44.998Z,56.62
2023-05-22T07:11:30.339Z,55.85
2023-05-22T07:14:15.801Z,58.75
2023-05-22T07:17:01.168Z,57.09
2023-05-22T07:19:46.482Z,56.80
2023-05-22T07:22:31.772Z,53.20
2023-05-22T07:25:17.072Z,54.63
2023-05-22T07:28:05.837Z,54.54
2023-05-22T07:30:51.987Z,53.53
2023-05-22T07:33:37.210Z,53.61
2023-05-22T07:36:22.780Z,54.21
2023-05-22T07:39:09.598Z,53.13
2023-05-22T07:41:57.209Z,53.24
2023-05-22T07:44:43.095Z,51.49
2023-05-22T07:47:28.423Z,51.01
2023-05-22T07:50:13.638Z,50.33
2023-05-22T07:52:59.217Z,50.48
2023-05-22T07:55:44.851Z,50.93
2023-05-22T07:58:30.310Z,51.06
2023-05-22T08:01:18.485Z,50.49
2023-05-22T08:04:05.598Z,50.26
2023-05-22T08:06:51.199Z,49.60
2023-05-22T08:09:37.104Z,49.74
2023-05-22T08:12:22.430Z,50.62
2023-05-22T08:15:08.630Z,51.57
2023-05-22T08:17:54.069Z,51.24
2023-05-22T08:20:42.949Z,49.05
2023-05-22T08:23:28.388Z,48.69
2023-05-22T08:26:15.135Z,48.94
2023-05-22T08:29:01.037Z,49.02
2023-05-22T08:31:46.426Z,49.67
2023-05-22T08:34:32.990Z,50.25
2023-05-22T08:37:18.557Z,50.00
2023-05-22T08:40:04.316Z,48.54
2023-05-22T08:42:51.563Z,49.15
2023-05-22T08:45:37.670Z,47.16
2023-05-22T08:48:24.129Z,48.85
2023-05-22T08:51:13.513Z,47.10
2023-05-22T08:54:00.571Z,47.93
2023-05-22T08:56:56.218Z,50.17
2023-05-22T08:59:44.082Z,49.35
2023-05-22T09:02:29.643Z,48.02
2023-05-22T09:05:17.038Z,46.72
2023-05-22T09:08:16.166Z,46.82
2023-05-22T09:11:04.698Z,47.46
2023-05-22T09:13:51.972Z,49.49
2023-05-22T09:16:52.899Z,49.25
2023-05-22T09:19:42.807Z,50.45
2023-05-22T09:22:38.398Z,51.76
2023-05-22T09:25:23.687Z,46.63
2023-05-22T09:28:09.236Z,47.53
2023-05-22T09:30:56.001Z,47.90
2023-05-22T09:33:44.196Z,48.20
2023-05-22T09:36:33.354Z,48.45
2023-05-22T09:39:18.833Z,48.92
2023-05-22T09:42:04.927Z,49.97
2023-05-22T09:44:51.622Z,46.73
2023-05-22T09:47:37.121Z,45.46
2023-05-22T09:50:22.484Z,45.84
2023-05-22T09:53:09.312Z,46.46
2023-05-22T09:56:00.198Z,47.92
2023-05-22T09:58:47.739Z,47.27
2023-05-22T10:01:34.207Z,46.01
2023-05-22T10:04:22.554Z,46.75
2023-05-22T10:07:10.262Z,45.97
2023-05-22T10:10:04.754Z,45.96
2023-05-22T10:13:04.571Z,45.99
2023-05-22T10:15:50.593Z,46.85
2023-05-22T10:18:37.645Z,46.24
2023-05-22T10:21:23.238Z,46.56
2023-05-22T10:24:10.152Z,46.79
2023-05-22T10:26:55.570Z,48.03
2023-05-22T10:29:49.402Z,47.91
2023-05-22T10:32:46.746Z,49.07
2023-05-22T10:35:47.769Z,46.81
2023-05-22T10:38:58.238Z,47.23
2023-05-22T10:41:43.584Z,46.14
2023-05-22T10:44:29.322Z,48.78
2023-05-22T10:47:14.728Z,44.97
2023-05-22T10:50:11.104Z,45.66
2023-05-22T10:53:34.023Z,46.21
2023-05-22T10:56:19.781Z,45.15
2023-05-22T10:59:08.015Z,46.76
2023-05-22T11:02:00.661Z,47.39
2023-05-22T11:04:45.961Z,45.90
2023-05-22T11:07:40.340Z,45.12
2023-05-22T11:10:59.360Z,43.39
2023-05-22T11:13:52.004Z,45.98
2023-05-22T11:16:39.084Z,46.34
2023-05-22T11:19:24.626Z,44.49
2023-05-22T11:22:09.948Z,44.68
2023-05-22T11:24:55.614Z,44.59
2023-05-22T11:27:41.428Z,45.29
2023-05-22T11:30:28.451Z,43.52
2023-05-22T11:33:14.786Z,44.09
2023-05-22T11:36:02.104Z,43.92
2023-05-22T11:38:47.211Z,43.91
2023-05-22T11:41:34.144Z,44.28
2023-05-22T11:44:19.830Z,45.16
2023-05-22T11:47:05.451Z,45.14
2023-05-22T11:49:51.923Z,46.00
2023-05-22T11:52:38.476Z,47.16
2023-05-22T11:55:24.323Z,46.78
2023-05-22T11:58:09.465Z,45.52
2023-05-22T12:01:01.610Z,46.83
2023-05-22T12:03:47.165Z,45.78
2023-05-22T12:06:33.513Z,44.50
2023-05-22T12:09:19.120Z,42.81
2023-05-22T12:12:04.534Z,44.58
2023-05-22T12:14:50.012Z,45.14
2023-05-22T12:17:37.737Z,46.57
2023-05-22T12:20:22.917Z,43.62
2023-05-22T12:23:12.285Z,43.13
2023-05-22T12:25:59.631Z,44.19
2023-05-22T12:28:44.901Z,43.83
2023-05-22T12:31:38.493Z,44.75
2023-05-22T12:34:23.916Z,43.75
2023-05-22T12:37:28.548Z,43.40
2023-05-22T12:40:13.920Z,44.52
2023-05-22T12:42:59.313Z,44.94
2023-05-22T12:45:44.966Z,44.61
2023-05-22T12:48:30.079Z,44.98
2023-05-22T12:51:16.127Z,46.09
2023-05-22T12:54:04.025Z,45.57
2023-05-22T12:56:49.315Z,45.92
2023-05-22T12:59:34.844Z,46.13
2023-05-22T13:02:20.069Z,46.02
2023-05-22T13:05:06.093Z,46.36
2023-05-22T13:07:51.455Z,47.30
2023-05-22T13:10:38.195Z,46.54
2023-05-22T13:13:23.673Z,47.23
2023-05-22T13:16:10.379Z,47.07
2023-05-22T13:18:55.701Z,46.14
2023-05-22T13:21:41.082Z,46.55
2023-05-22T13:24:26.492Z,47.07
2023-05-22T13:27:11.706Z,46.11
2023-05-22T13:29:57.062Z,46.39
2023-05-22T13:32:42.331Z,46.97
2023-05-22T13:35:27.689Z,46.19
2023-05-22T13:38:13.004Z,46.02
2023-05-22T13:40:58.459Z,46.65
2023-05-22T13:43:43.703Z,46.02
2023-05-22T13:46:29.148Z,46.69
2023-05-22T13:49:14.752Z,45.94
2023-05-22T13:51:59.820Z,45.89
2023-05-22T13:54:45.217Z,45.41
2023-05-22T13:57:30.515Z,45.80
2023-05-22T14:00:16.301Z,45.16
2023-05-22T14:03:01.768Z,45.63
2023-05-22T14:05:46.824Z,45.48
2023-05-22T14:08:31.987Z,45.90
2023-05-22T14:11:17.266Z,47.22
2023-05-22T14:14:02.565Z,47.45
2023-05-22T14:16:47.973Z,46.36
2023-05-22T14:19:33.233Z,46.24
2023-05-22T14:22:18.632Z,45.28
2023-05-22T14:25:04.029Z,45.13
2023-05-22T14:27:49.510Z,45.75
2023-05-22T14:30:34.826Z,47.07
2023-05-22T14:33:20.038Z,46.56
2023-05-22T14:36:05.603Z,45.90
2023-05-22T14:38:50.865Z,46.08
2023-05-22T14:41:36.668Z,46.07
2023-05-22T14:44:24.756Z,45.17
2023-05-22T14:47:09.794Z,45.44
2023-05-22T14:49:57.665Z,45.34
2023-05-22T14:52:49.382Z,46.47
2023-05-22T14:55:34.748Z,45.72
2023-05-22T14:58:19.984Z,45.50
2023-05-22T15:01:05.430Z,47.16
2023-05-22T15:03:50.707Z,46.07
2023-05-22T15:06:36.212Z,45.27
2023-05-22T15:09:21.347Z,45.92
2023-05-22T15:12:07.203Z,47.01
2023-05-22T15:14:52.571Z,45.97
2023-05-22T15:17:38.896Z,46.45
2023-05-22T15:20:26.355Z,47.08
2023-05-22T15:23:11.617Z,46.40
2023-05-22T15:25:56.955Z,45.78
2023-05-22T15:28:42.246Z,45.52
2023-05-22T15:31:31.689Z,45.78
2023-05-22T15:34:17.132Z,45.55
2023-05-22T15:37:02.433Z,45.49
2023-05-22T15:39:47.658Z,44.93
2023-05-22T15:42:32.939Z,44.61
2023-05-22T15:45:18.206Z,44.53
2023-05-22T15:48:05.460Z,44.48
2023-05-22T15:50:51.145Z,44.43
2023-05-22T15:53:36.392Z,45.95
2023-05-22T15:56:21.644Z,45.87
2023-05-22T15:59:06.813Z,45.38
2023-05-22T16:01:52.182Z,45.24
2023-05-22T16:04:37.472Z,44.68
2023-05-22T16:07:22.860Z,45.68
2023-05-22T16:10:09.058Z,45.38
2023-05-22T16:12:54.071Z,45.85
2023-05-22T16:15:40.866Z,46.54
2023-05-22T16:18:26.447Z,45.93
2023-05-22T16:21:11.676Z,45.54
2023-05-22T16:23:57.793Z,44.94
2023-05-22T16:26:43.084Z,45.92
2023-05-22T16:29:28.366Z,45.91
2023-05-22T16:32:13.709Z,45.63
2023-05-22T16:34:59.138Z,45.72
2023-05-22T16:37:44.522Z,46.04
2023-05-22T16:40:29.882Z,46.15
2023-05-22T16:43:15.124Z,45.74
2023-05-22T16:46:00.377Z,46.33
2023-05-22T16:48:45.638Z,45.50
2023-05-22T16:51:30.943Z,45.40
2023-05-22T16:54:16.199Z,45.96
2023-05-22T16:57:01.879Z,45.93
2023-05-22T16:59:47.355Z,46.61
2023-05-22T17:02:33.008Z,47.27
2023-05-22T17:05:18.661Z,47.48
2023-05-22T17:08:04.562Z,48.21
2023-05-22T17:10:49.938Z,50.33
2023-05-22T17:13:35.313Z,51.81
2023-05-22T17:16:21.079Z,52.62
2023-05-22T17:19:06.836Z,52.97
2023-05-22T17:21:52.171Z,54.09
2023-05-22T17:24:41.351Z,54.74
2023-05-22T17:27:35.394Z,54.97
2023-05-22T17:30:21.876Z,55.50
2023-05-22T17:33:07.853Z,56.16
2023-05-22T17:35:53.310Z,56.79
2023-05-22T17:38:38.542Z,57.17
2023-05-22T17:41:24.378Z,57.28
2023-05-22T17:44:09.671Z,57.94
2023-05-22T17:46:54.883Z,59.19
2023-05-22T17:49:40.204Z,59.69
2023-05-22T17:52:25.879Z,60.13
2023-05-22T17:55:11.237Z,60.21
2023-05-22T17:57:56.385Z,60.49
2023-05-22T18:00:42.429Z,60.74
2023-05-22T18:03:28.078Z,60.87
2023-05-22T18:06:13.533Z,61.15
2023-05-22T18:08:58.929Z,61.03
2023-05-22T18:11:44.400Z,61.65
2023-05-22T18:14:29.741Z,62.10
2023-05-22T18:17:15.374Z,62.39
2023-05-22T18:20:00.998Z,62.87
2023-05-22T18:22:46.398Z,63.13
2023-05-22T18:25:31.744Z,63.51
2023-05-22T18:28:16.889Z,63.74
2023-05-22T18:31:02.163Z,63.52
2023-05-22T18:33:47.740Z,63.47
2023-05-22T18:36:34.028Z,63.87
2023-05-22T18:39:19.474Z,63.35
2023-05-22T18:42:05.030Z,63.63
2023-05-22T18:44:50.779Z,64.62
2023-05-22T18:47:36.366Z,64.85
2023-05-22T18:50:23.568Z,65.05
2023-05-22T18:53:11.216Z,65.05
2023-05-22T18:55:56.805Z,65.06
2023-05-22T18:58:42.588Z,65.42
2023-05-22T19:01:27.832Z,65.47
2023-05-22T19:04:12.921Z,66.28
2023-05-22T19:06:59.199Z,66.40
2023-05-22T19:09:44.335Z,66.45
2023-05-22T19:12:31.754Z,66.73
2023-05-22T19:15:16.940Z,66.92
2023-05-22T19:18:02.245Z,67.18
2023-05-22T19:20:47.692Z,67.42
2023-05-22T19:23:36.721Z,67.65
2023-05-22T19:26:21.715Z,67.98
2023-05-22T19:29:06.796Z,68.01
2023-05-22T19:31:52.064Z,68.18
2023-05-22T19:34:37.253Z,68.47
2023-05-22T19:37:22.556Z,68.91
2023-05-22T19:40:09.714Z,69.21
2023-05-22T19:42:55.217Z,69.35
2023-05-22T19:45:40.579Z,69.56
2023-05-22T19:48:27.041Z,69.80
2023-05-22T19:51:12.426Z,70.08
2023-05-22T19:53:57.554Z,70.20
2023-05-22T19:56:42.855Z,70.16
2023-05-22T19:59:28.260Z,70.32
2023-05-22T20:02:13.757Z,70.70
2023-05-22T20:04:59.227Z,71.03
2023-05-22T20:07:44.633Z,70.88
2023-05-22T20:10:31.631Z,71.01
2023-05-22T20:13:16.897Z,71.69
2023-05-22T20:16:11.780Z,72.20
2023-05-22T20:18:57.127Z,72.20
2023-05-22T20:21:42.369Z,72.59
2023-05-22T20:24:27.792Z,72.77
2023-05-22T20:27:13.342Z,73.12
2023-05-22T20:30:00.203Z,73.30
2023-05-22T20:32:48.559Z,73.33
2023-05-22T20:35:34.017Z,73.52
2023-05-22T20:38:20.024Z,73.67
2023-05-22T20:41:08.637Z,73.92
2023-05-22T20:43:55.104Z,74.44
2023-05-22T20:46:40.380Z,74.18
2023-05-22T20:49:25.699Z,74.57
2023-05-22T20:52:13.376Z,74.72
2023-05-22T20:54:59.101Z,74.82
2023-05-22T20:57:44.012Z,74.83
2023-05-22T21:00:30.046Z,75.40
2023-05-22T21:03:15.240Z,75.50
2023-05-22T21:06:00.606Z,75.72
2023-05-22T21:08:46.116Z,76.12
2023-05-22T21:11:31.474Z,76.03
2023-05-22T21:14:17.347Z,76.04
2023-05-22T21:17:02.459Z,76.58
2023-05-22T21:19:47.819Z,76.77
2023-05-22T21:22:33.146Z,76.94
2023-05-22T21:25:18.401Z,76.92
2023-05-22T21:28:04.021Z,77.55
2023-05-22T21:30:49.493Z,77.37
2023-05-22T21:33:35.020Z,77.84
2023-05-22T21:36:20.516Z,77.88
2023-05-22T21:39:06.253Z,78.14
2023-05-22T21:41:51.757Z,78.30
2023-05-22T21:44:37.531Z,78.37
2023-05-22T21:47:22.797Z,78.42
2023-05-22T21:50:08.345Z,78.62
2023-05-22T21:52:53.962Z,78.88
2023-05-22T21:55:39.417Z,78.90
2023-05-22T21:58:24.758Z,78.78
2023-05-22T22:01:10.239Z,78.93
2023-05-22T22:03:55.520Z,79.17
2023-05-22T22:06:40.985Z,79.43
2023-05-22T22:09:26.402Z,79.31
2023-05-22T22:12:12.000Z,79.43
2023-05-22T22:14:57.908Z,79.66
2023-05-22T22:17:43.192Z,79.98
2023-05-22T22:20:39.876Z,80.09
2023-05-22T22:23:30.228Z,80.04
2023-05-22T22:26:16.288Z,80.36
2023-05-22T22:29:01.731Z,80.29
2023-05-22T22:31:47.055Z,80.16
2023-05-22T22:34:32.808Z,80.51
2023-05-22T22:37:18.878Z,80.72
2023-05-22T22:40:05.575Z,80.64
2023-05-22T22:42:51.137Z,80.63
2023-05-22T22:45:36.470Z,80.78
2023-05-22T22:48:22.453Z,81.52
2023-05-22T22:51:09.497Z,81.12
2023-05-22T22:53:54.891Z,81.06
2023-05-22T22:56:40.153Z,81.27
2023-05-22T22:59:25.672Z,81.26
2023-05-22T23:02:11.105Z,81.35
2023-05-22T23:04:56.619Z,81.19
2023-05-22T23:07:41.640Z,81.20
2023-05-22T23:10:26.971Z,81.77
2023-05-22T23:13:12.306Z,81.76
2023-05-22T23:15:57.416Z,82.16
2023-05-22T23:18:42.754Z,81.75
2023-05-22T23:21:27.905Z,81.86
2023-05-22T23:24:13.352Z,81.90
2023-05-22T23:26:58.571Z,82.05
2023-05-22T23:29:43.993Z,82.05
2023-05-22T23:32:29.307Z,82.18
2023-05-22T23:35:14.509Z,82.26
2023-05-22T23:37:59.938Z,82.26
2023-05-22T23:40:45.295Z,82.48
2023-05-22T23:43:30.688Z,82.79
2023-05-22T23:46:15.966Z,82.72
2023-05-22T23:49:01.424Z,82.78
2023-05-22T23:51:46.659Z,83.23
2023-05-22T23:54:31.969Z,82.95
2023-05-22T23:57:17.314Z,82.85
